createdAt,value
2018-05-17T13:26:53.006Z,17.80
2018-05-17T13:27:55.511Z,17.80
2018-05-17T13:28:58.019Z,17.60
2018-05-17T13:30:00.546Z,17.40
2018-05-17T13:31:03.045Z,17.40
2018-05-17T13:32:06.341Z,17.50
2018-05-17T13:33:09.603Z,17.50
2018-05-17T13:34:12.129Z,17.50
2018-05-17T13:35:14.645Z,17.60
2018-05-17T13:36:17.149Z,17.70
2018-05-17T13:37:20.556Z,17.70
2018-05-17T13:38:22.966Z,17.60
2018-05-17T13:39:25.457Z,17.70
2018-05-17T13:40:28.759Z,17.80
2018-05-17T13:41:32.025Z,17.80
2018-05-17T13:42:34.563Z,17.80
2018-05-17T13:43:37.059Z,17.90
2018-05-17T13:44:39.565Z,17.90
2018-05-17T13:45:42.846Z,17.90
2018-05-17T13:46:46.121Z,17.80
2018-05-17T13:47:48.648Z,17.80
2018-05-17T13:48:51.167Z,17.80
2018-05-17T13:49:53.664Z,17.80
2018-05-17T13:50:56.179Z,17.70
2018-05-17T13:51:58.701Z,17.80
2018-05-17T13:53:01.985Z,17.90
2018-05-17T13:54:05.253Z,18.00
2018-05-17T13:55:07.793Z,18.00
2018-05-17T13:56:10.542Z,18.00
2018-05-17T13:57:13.069Z,18.00
2018-05-17T13:58:15.586Z,18.00
2018-05-17T13:59:18.094Z,18.00
2018-05-17T14:00:20.624Z,18.10
2018-05-17T14:01:23.130Z,18.10
2018-05-17T14:02:25.738Z,18.10
2018-05-17T14:03:28.945Z,18.20
2018-05-17T14:04:31.487Z,18.20
2018-05-17T14:05:38.393Z,18.20
2018-05-17T14:06:40.934Z,18.10
2018-05-17T14:07:43.462Z,18.10
2018-05-17T14:08:45.979Z,18.00
2018-05-17T14:09:50.086Z,18.10
2018-05-17T14:10:52.568Z,18.10
2018-05-17T14:11:55.877Z,18.10
2018-05-17T14:12:58.376Z,18.10
2018-05-17T14:14:00.884Z,18.20
2018-05-17T14:15:03.394Z,18.20
2018-05-17T14:16:05.939Z,18.20
2018-05-17T14:17:09.200Z,18.20
2018-05-17T14:18:11.748Z,18.20
2018-05-17T14:19:14.254Z,18.10
2018-05-17T14:20:16.770Z,18.10
2018-05-17T14:21:19.304Z,18.00
2018-05-17T14:22:22.575Z,17.90
2018-05-17T14:23:25.091Z,17.90
2018-05-17T14:24:27.591Z,18.00
2018-05-17T14:25:30.113Z,18.00
2018-05-17T14:26:33.412Z,18.10
2018-05-17T14:27:35.909Z,18.10
2018-05-17T14:28:38.477Z,18.10
2018-05-17T14:29:41.028Z,18.00
2018-05-17T14:30:43.570Z,17.90
2018-05-17T14:31:46.177Z,17.90
2018-05-17T14:32:48.639Z,17.90
2018-05-17T14:33:51.166Z,18.00
2018-05-17T14:34:53.668Z,18.00
2018-05-17T14:35:56.935Z,18.00
2018-05-17T14:36:59.463Z,18.00
2018-05-17T14:38:01.976Z,17.90
2018-05-17T14:39:05.386Z,17.90
2018-05-17T14:40:08.677Z,17.80
2018-05-17T14:41:11.955Z,17.90
2018-05-17T14:42:15.239Z,17.80
2018-05-17T14:43:17.803Z,17.80
2018-05-17T14:44:20.329Z,17.90
2018-05-17T14:45:25.770Z,17.90
2018-05-17T14:46:28.277Z,18.00
2018-05-17T14:47:30.784Z,18.00
2018-05-17T14:48:34.074Z,17.90
2018-05-17T14:49:36.599Z,17.90
2018-05-17T14:50:39.129Z,17.90
2018-05-17T14:51:41.673Z,17.90
2018-05-17T14:52:44.968Z,17.90
2018-05-17T14:53:48.271Z,17.90
2018-05-17T14:54:50.810Z,17.90
2018-05-17T14:55:54.198Z,17.80
2018-05-17T14:56:56.676Z,17.80
2018-05-17T14:57:59.978Z,17.60
2018-05-17T14:59:03.275Z,17.50
2018-05-17T15:00:05.801Z,17.50
2018-05-17T15:01:08.448Z,17.50
2018-05-17T15:02:10.981Z,17.60
2018-05-17T15:03:14.319Z,17.70
2018-05-17T15:04:16.872Z,17.70
2018-05-17T15:05:19.383Z,17.80
2018-05-17T15:06:21.901Z,17.80
2018-05-17T15:07:24.422Z,17.80
2018-05-17T15:08:26.985Z,17.80
2018-05-17T15:09:29.485Z,17.80
2018-05-17T15:10:32.032Z,17.90
2018-05-17T15:11:34.554Z,17.90
2018-05-17T15:12:37.092Z,17.90
2018-05-17T15:13:40.393Z,18.00
2018-05-17T15:14:43.652Z,17.90
2018-05-17T15:15:46.159Z,17.90
2018-05-17T15:16:49.418Z,17.80
2018-05-17T15:17:51.928Z,17.80
2018-05-17T15:18:54.503Z,17.80
2018-05-17T15:19:57.007Z,17.70
2018-05-17T15:20:59.528Z,17.80
2018-05-17T15:22:02.817Z,17.60
2018-05-17T15:23:06.105Z,17.40
2018-05-17T15:24:09.437Z,17.40
2018-05-17T15:25:12.004Z,17.40
2018-05-17T15:26:14.520Z,17.40
2018-05-17T15:27:17.903Z,17.40
2018-05-17T15:28:20.362Z,17.30
2018-05-17T15:29:22.893Z,17.40
2018-05-17T15:30:25.397Z,17.40
2018-05-17T15:31:27.911Z,17.40
2018-05-17T15:32:31.188Z,17.30
2018-05-17T15:33:34.448Z,17.50
2018-05-17T15:34:36.979Z,17.40
2018-05-17T15:35:39.494Z,17.40
2018-05-17T15:36:42.003Z,17.50
2018-05-17T15:37:44.526Z,17.60
2018-05-17T15:38:47.047Z,17.60
2018-05-17T15:39:50.382Z,17.50
2018-05-17T15:40:52.902Z,17.50
2018-05-17T15:41:55.435Z,17.50
2018-05-17T15:42:57.957Z,17.40
2018-05-17T15:44:00.451Z,17.50
2018-05-17T15:45:02.982Z,17.50
2018-05-17T15:46:06.262Z,17.50
2018-05-17T15:47:08.773Z,17.40
2018-05-17T15:48:11.450Z,17.30
2018-05-17T15:49:13.941Z,17.20
2018-05-17T15:50:16.477Z,17.20
2018-05-17T15:51:18.991Z,17.20
2018-05-17T15:52:21.490Z,17.20
2018-05-17T15:53:24.031Z,17.20
2018-05-17T15:54:26.538Z,17.10
2018-05-17T15:55:29.833Z,17.10
2018-05-17T15:56:32.339Z,17.10
2018-05-17T15:57:34.915Z,17.10
2018-05-17T15:58:37.423Z,17.10
2018-05-17T15:59:39.918Z,17.20
2018-05-17T16:00:42.439Z,17.10
2018-05-17T16:01:45.024Z,17.00
2018-05-17T16:02:47.532Z,17.00
2018-05-17T16:03:50.030Z,16.90
2018-05-17T16:04:52.558Z,17.00
2018-05-17T16:05:55.858Z,16.90
2018-05-17T16:06:58.369Z,16.90
2018-05-17T16:08:00.883Z,16.80
2018-05-17T16:09:03.485Z,16.80
2018-05-17T16:10:06.037Z,16.80
2018-05-17T16:11:08.600Z,16.80
2018-05-17T16:12:11.943Z,16.80
2018-05-17T16:13:14.447Z,16.80
2018-05-17T16:14:16.955Z,16.90
2018-05-17T16:15:19.542Z,17.00
2018-05-17T16:16:22.795Z,17.00
2018-05-17T16:17:26.249Z,17.00
2018-05-17T16:18:28.773Z,17.00
2018-05-17T16:19:31.306Z,17.00
2018-05-17T16:20:33.821Z,17.00
2018-05-17T16:21:36.346Z,16.90
2018-05-17T16:22:38.855Z,16.80
2018-05-17T16:23:41.363Z,16.70
2018-05-17T16:24:43.867Z,16.70
2018-05-17T16:25:47.220Z,16.60
2018-05-17T16:26:49.761Z,16.60
2018-05-17T16:27:52.281Z,16.60
2018-05-17T16:28:54.780Z,16.50
2018-05-17T16:29:58.156Z,16.40
2018-05-17T16:31:00.666Z,16.40
2018-05-17T16:32:03.233Z,16.40
2018-05-17T16:33:05.764Z,16.40
2018-05-17T16:34:08.269Z,16.40
2018-05-17T16:35:10.867Z,16.40
2018-05-17T16:36:13.405Z,16.40
2018-05-17T16:37:16.665Z,16.30
2018-05-17T16:38:19.183Z,16.30
2018-05-17T16:39:21.757Z,16.20
2018-05-17T16:40:24.280Z,16.20
2018-05-17T16:41:26.807Z,16.20
2018-05-17T16:42:29.354Z,16.20
2018-05-17T16:43:31.868Z,16.10
2018-05-17T16:44:34.371Z,16.10
2018-05-17T16:45:37.656Z,15.80
2018-05-17T16:46:40.176Z,15.80
2018-05-17T16:47:42.696Z,15.80
2018-05-17T16:48:45.195Z,15.70
2018-05-17T16:49:47.707Z,15.60
2018-05-17T16:50:50.250Z,15.60
2018-05-17T16:51:52.759Z,15.60
2018-05-17T16:52:55.354Z,15.60
2018-05-17T16:53:57.855Z,15.60
2018-05-17T16:55:01.139Z,15.60
2018-05-17T16:56:03.709Z,15.60
2018-05-17T16:57:06.221Z,15.60
2018-05-17T16:58:08.720Z,15.50
2018-05-17T16:59:11.309Z,15.50
2018-05-17T17:00:14.588Z,15.40
2018-05-17T17:01:17.882Z,15.40
2018-05-17T17:02:21.167Z,15.30
2018-05-17T17:03:24.550Z,15.30
2018-05-17T17:04:27.096Z,15.30
2018-05-17T17:05:29.637Z,15.30
2018-05-17T17:06:32.214Z,15.30
2018-05-17T17:07:34.707Z,15.30
2018-05-17T17:08:37.198Z,15.40
2018-05-17T17:09:40.483Z,15.50
2018-05-17T17:10:43.061Z,15.50
2018-05-17T17:11:46.334Z,15.50
2018-05-17T17:12:48.850Z,15.50
2018-05-17T17:13:51.365Z,15.50
2018-05-17T17:14:53.913Z,15.50
2018-05-17T17:15:56.422Z,15.50
2018-05-17T17:16:58.917Z,15.40
2018-05-17T17:18:02.226Z,15.30
2018-05-17T17:19:04.748Z,15.30
2018-05-17T17:20:07.293Z,15.30
2018-05-17T17:21:09.839Z,15.20
2018-05-17T17:22:12.366Z,15.20
2018-05-17T17:23:14.866Z,15.20
2018-05-17T17:24:18.134Z,15.30
2018-05-17T17:25:20.688Z,15.30
2018-05-17T17:26:23.191Z,15.30
2018-05-17T17:27:26.472Z,15.30
2018-05-17T17:28:29.760Z,15.20
2018-05-17T17:29:33.054Z,15.00
2018-05-17T17:30:36.350Z,14.90
2018-05-17T17:31:39.628Z,14.80
2018-05-17T17:32:42.929Z,14.80
2018-05-17T17:33:45.488Z,14.80
2018-05-17T17:34:48.789Z,14.60
2018-05-17T17:35:52.091Z,14.60
2018-05-17T17:36:54.620Z,14.50
2018-05-17T17:37:57.138Z,14.50
2018-05-17T17:38:59.657Z,14.40
2018-05-17T17:40:02.187Z,14.40
2018-05-17T17:41:04.759Z,14.40
2018-05-17T17:42:07.293Z,14.40
2018-05-17T17:43:10.584Z,14.30
2018-05-17T17:44:13.895Z,14.30
2018-05-17T17:45:17.201Z,14.10
2018-05-17T17:46:19.792Z,14.20
2018-05-17T17:47:22.316Z,14.10
2018-05-17T17:48:25.005Z,14.00
2018-05-17T17:49:27.561Z,14.00
2018-05-17T17:50:30.140Z,13.90
2018-05-17T17:51:32.679Z,13.90
2018-05-17T17:52:35.240Z,13.90
2018-05-17T17:53:37.791Z,13.80
2018-05-17T17:54:40.332Z,13.80
2018-05-17T17:55:42.861Z,13.80
2018-05-17T17:56:45.395Z,13.70
2018-05-17T17:57:49.433Z,13.60
2018-05-17T17:58:51.982Z,13.60
2018-05-17T17:59:55.285Z,13.60
2018-05-17T18:00:58.561Z,13.50
2018-05-17T18:02:01.857Z,13.40
2018-05-17T18:03:05.152Z,13.40
2018-05-17T18:04:08.439Z,13.40
2018-05-17T18:05:11.846Z,13.40
2018-05-17T18:06:14.299Z,13.30
2018-05-17T18:07:17.596Z,13.30
2018-05-17T18:08:21.183Z,13.30
2018-05-17T18:09:23.805Z,13.30
2018-05-17T18:11:36.039Z,13.20
2018-05-17T18:12:38.661Z,13.20
2018-05-17T18:13:41.188Z,13.10
2018-05-17T18:14:43.712Z,13.10
2018-05-17T18:15:46.268Z,13.10
2018-05-17T18:16:48.805Z,13.10
2018-05-17T18:17:51.344Z,13.10
2018-05-17T18:18:53.870Z,13.10
2018-05-17T18:19:57.132Z,13.10
2018-05-17T18:20:59.646Z,13.10
2018-05-17T18:22:02.161Z,13.10
2018-05-17T18:23:04.674Z,13.10
2018-05-17T18:24:08.023Z,13.10
2018-05-17T18:25:10.757Z,13.10
2018-05-17T18:26:13.423Z,13.10
2018-05-17T18:27:15.980Z,13.10
2018-05-17T18:28:19.327Z,13.10
2018-05-17T18:29:21.880Z,13.10
2018-05-17T18:30:24.399Z,13.10
2018-05-17T18:31:27.801Z,13.10
2018-05-17T18:32:30.437Z,13.00
2018-05-17T18:33:33.697Z,13.00
2018-05-17T18:34:36.214Z,12.90
2018-05-17T18:35:40.247Z,13.00
2018-05-17T18:36:42.836Z,13.00
2018-05-17T18:37:46.071Z,13.40
2018-05-17T18:38:48.612Z,13.40
2018-05-17T18:39:51.141Z,13.50
2018-05-17T18:40:54.472Z,13.80
2018-05-17T18:41:57.034Z,13.80
2018-05-17T18:42:59.587Z,14.00
2018-05-17T18:44:02.149Z,14.10
2018-05-17T18:45:05.448Z,14.00
2018-05-17T18:46:07.992Z,14.00
2018-05-17T18:47:10.647Z,13.80
2018-05-17T18:48:13.189Z,13.70
2018-05-17T18:49:15.721Z,13.60
2018-05-17T18:50:18.993Z,13.40
2018-05-17T18:51:21.553Z,13.40
2018-05-17T18:52:24.081Z,13.30
2018-05-17T18:53:26.611Z,13.20
2018-05-17T18:54:29.259Z,13.30
2018-05-17T18:55:32.482Z,13.10
2018-05-17T18:56:35.805Z,13.10
2018-05-17T18:57:38.345Z,13.00
2018-05-17T18:58:41.646Z,13.00
2018-05-17T18:59:44.203Z,13.00
2018-05-17T19:00:47.549Z,13.00
2018-05-17T19:01:50.826Z,13.00
2018-05-17T19:02:54.109Z,12.90
2018-05-17T19:03:56.649Z,12.90
2018-05-17T19:04:59.989Z,12.90
2018-05-17T19:06:02.527Z,12.90
2018-05-17T19:07:05.080Z,13.00
2018-05-17T19:08:08.492Z,13.20
2018-05-17T19:09:11.063Z,13.20
2018-05-17T19:10:13.990Z,13.20
2018-05-17T19:11:16.621Z,13.40
2018-05-17T19:12:20.091Z,13.50
2018-05-17T19:13:22.628Z,13.50
2018-05-17T19:14:25.195Z,13.50
2018-05-17T19:15:27.762Z,13.50
2018-05-17T19:16:30.304Z,13.50
2018-05-17T19:17:32.842Z,13.60
2018-05-17T19:18:35.401Z,13.50
2018-05-17T19:19:37.936Z,13.50
2018-05-17T19:20:40.469Z,13.50
2018-05-17T19:21:43.798Z,13.40
2018-05-17T19:22:46.428Z,13.40
2018-05-17T19:23:49.748Z,13.80
2018-05-17T19:24:52.264Z,13.80
2018-05-17T19:25:54.825Z,13.70
2018-05-17T19:26:57.419Z,13.70
2018-05-17T19:27:59.954Z,13.70
2018-05-17T19:29:02.589Z,13.60
2018-05-17T19:30:05.976Z,13.40
2018-05-17T19:31:09.405Z,13.40
2018-05-17T19:32:12.749Z,13.30
2018-05-17T19:33:16.104Z,13.50
2018-05-17T19:34:18.657Z,13.50
2018-05-17T19:35:21.235Z,13.60
2018-05-17T19:36:23.757Z,13.40
2018-05-17T19:37:27.134Z,13.10
2018-05-17T19:38:29.619Z,13.00
2018-05-17T19:39:32.921Z,12.90
2018-05-17T19:40:35.442Z,12.80
2018-05-17T19:41:38.000Z,12.70
2018-05-17T19:42:40.576Z,12.70
2018-05-17T19:43:43.104Z,12.60
2018-05-17T19:44:46.393Z,12.40
2018-05-17T19:45:49.702Z,12.40
2018-05-17T19:46:52.251Z,12.40
2018-05-17T19:47:55.532Z,12.30
2018-05-17T19:48:58.830Z,12.30
2018-05-17T19:50:02.169Z,12.20
2018-05-17T19:51:04.688Z,12.20
2018-05-17T19:52:08.013Z,12.20
2018-05-17T19:53:10.594Z,12.20
2018-05-17T19:54:14.651Z,12.10
2018-05-17T19:55:17.974Z,12.20
2018-05-17T19:56:20.498Z,12.10
2018-05-17T19:57:23.021Z,12.20
2018-05-17T19:58:25.596Z,12.10
2018-05-17T19:59:28.254Z,12.10
2018-05-17T20:00:30.776Z,12.10
2018-05-17T20:01:33.252Z,12.10
2018-05-17T20:02:35.766Z,12.10
2018-05-17T20:03:38.323Z,12.10
2018-05-17T20:04:40.856Z,12.10
2018-05-17T20:05:43.369Z,12.10
2018-05-17T20:06:45.992Z,12.00
2018-05-17T20:07:48.605Z,12.00
2018-05-17T20:08:51.947Z,11.90
2018-05-17T20:09:54.489Z,11.90
2018-05-17T20:10:57.018Z,11.90
2018-05-17T20:11:59.587Z,12.00
2018-05-17T20:13:02.866Z,11.90
2018-05-17T20:14:05.484Z,11.90
2018-05-17T20:15:08.034Z,11.90
2018-05-17T20:16:11.426Z,11.90
2018-05-17T20:17:14.733Z,11.90
2018-05-17T20:18:17.273Z,11.90
2018-05-17T20:19:19.853Z,11.90
2018-05-17T20:20:22.533Z,11.90
2018-05-17T20:21:25.050Z,11.90
2018-05-17T20:22:27.577Z,11.90
2018-05-17T20:23:30.874Z,11.80
2018-05-17T20:24:33.776Z,11.80
2018-05-17T20:25:36.331Z,11.80
2018-05-17T20:26:38.889Z,11.90
2018-05-17T20:27:41.430Z,11.80
2018-05-17T20:28:43.984Z,11.70
2018-05-17T20:29:46.580Z,11.80
2018-05-17T20:30:49.115Z,11.80
2018-05-17T20:31:51.627Z,11.80
2018-05-17T20:32:54.933Z,11.80
2018-05-17T20:33:58.220Z,11.80
2018-05-17T20:35:01.504Z,11.80
2018-05-17T20:36:04.781Z,11.80
2018-05-17T20:37:08.080Z,11.80
2018-05-17T20:38:11.469Z,11.80
2018-05-17T20:39:14.772Z,11.80
2018-05-17T20:40:17.299Z,11.80
2018-05-17T20:41:19.842Z,11.80
2018-05-17T20:42:22.407Z,11.70
2018-05-17T20:43:24.945Z,11.70
2018-05-17T20:44:28.250Z,11.70
2018-05-17T20:45:30.756Z,11.70
2018-05-17T20:46:33.259Z,11.70
2018-05-17T20:47:35.766Z,11.70
2018-05-17T20:48:38.287Z,11.70
2018-05-17T20:49:40.856Z,11.70
2018-05-17T20:50:43.344Z,11.70
2018-05-17T20:51:45.929Z,11.70
2018-05-17T20:52:49.219Z,11.60
2018-05-17T20:53:52.554Z,11.60
2018-05-17T20:54:55.107Z,11.60
2018-05-17T20:55:57.638Z,11.70
2018-05-17T20:57:00.147Z,11.70
2018-05-17T20:58:02.666Z,11.60
2018-05-17T20:59:05.192Z,11.60
2018-05-17T21:00:07.706Z,11.60
2018-05-17T21:01:10.240Z,11.60
2018-05-17T21:02:12.774Z,11.60
2018-05-17T21:03:16.042Z,11.60
2018-05-17T21:04:18.567Z,11.60
2018-05-17T21:05:22.032Z,11.60
2018-05-17T21:06:25.309Z,11.50
2018-05-17T21:07:27.806Z,11.50
2018-05-17T21:08:30.325Z,11.50
2018-05-17T21:09:32.885Z,11.50
2018-05-17T21:10:35.596Z,11.50
2018-05-17T21:11:38.913Z,11.50
2018-05-17T21:12:41.509Z,11.40
2018-05-17T21:13:44.013Z,11.40
2018-05-17T21:14:46.523Z,11.40
2018-05-17T21:15:50.029Z,11.40
2018-05-17T21:16:52.544Z,11.40
2018-05-17T21:17:55.080Z,11.30
2018-05-17T21:18:57.583Z,11.30
2018-05-17T21:20:00.095Z,11.30
2018-05-17T21:21:03.487Z,11.20
2018-05-17T21:22:06.741Z,11.20
2018-05-17T21:23:09.272Z,11.20
2018-05-17T21:24:11.865Z,11.20
2018-05-17T21:25:14.389Z,11.20
2018-05-17T21:26:17.709Z,11.10
2018-05-17T21:27:20.242Z,11.10
2018-05-17T21:28:22.755Z,11.10
2018-05-17T21:29:25.257Z,11.20
2018-05-17T21:30:27.795Z,11.10
2018-05-17T21:31:30.329Z,11.10
2018-05-17T21:32:33.626Z,11.10
2018-05-17T21:33:36.935Z,11.00
2018-05-17T21:34:39.430Z,11.00
2018-05-17T21:35:41.956Z,11.10
2018-05-17T21:36:45.242Z,11.00
2018-05-17T21:37:48.589Z,11.00
2018-05-17T21:38:51.104Z,11.00
2018-05-17T21:39:54.367Z,11.00
2018-05-17T21:40:56.871Z,11.00
2018-05-17T21:42:00.149Z,11.00
2018-05-17T21:43:03.449Z,11.00
2018-05-17T21:44:05.961Z,10.90
2018-05-17T21:45:08.491Z,11.00
2018-05-17T21:46:11.757Z,10.90
2018-05-17T21:47:14.267Z,10.90
2018-05-17T21:48:16.786Z,10.90
2018-05-17T21:49:19.295Z,10.90
2018-05-17T21:50:21.794Z,10.80
2018-05-17T21:51:24.303Z,10.80
2018-05-17T21:52:26.822Z,10.80
2018-05-17T21:53:29.334Z,10.80
2018-05-17T21:54:31.845Z,10.80
2018-05-17T21:55:34.418Z,10.80
2018-05-17T21:56:36.844Z,10.80
2018-05-17T21:57:39.338Z,10.80
2018-05-17T21:58:42.619Z,10.80
2018-05-17T21:59:45.106Z,10.70
2018-05-17T22:00:48.373Z,10.70
2018-05-17T22:01:50.887Z,10.70
2018-05-17T22:02:54.418Z,10.70
2018-05-17T22:03:57.079Z,10.70
2018-05-17T22:04:59.597Z,10.60
2018-05-17T22:06:02.854Z,10.60
2018-05-17T22:07:05.350Z,10.60
2018-05-17T22:08:08.645Z,10.70
2018-05-17T22:09:11.931Z,10.70
2018-05-17T22:10:15.241Z,10.60
2018-05-17T22:11:18.709Z,10.60
2018-05-17T22:12:21.972Z,10.60
2018-05-17T22:13:24.522Z,10.60
2018-05-17T22:14:27.019Z,10.60
2018-05-17T22:15:29.590Z,10.60
2018-05-17T22:16:32.095Z,10.60
2018-05-17T22:17:35.344Z,10.60
2018-05-17T22:18:38.694Z,10.60
2018-05-17T22:19:41.371Z,10.50
2018-05-17T22:20:43.906Z,10.60
2018-05-17T22:21:47.165Z,10.60
2018-05-17T22:22:49.933Z,10.60
2018-05-17T22:23:52.459Z,10.50
2018-05-17T22:24:55.083Z,10.60
2018-05-17T22:25:57.596Z,10.60
2018-05-17T22:27:00.862Z,10.60
2018-05-17T22:28:03.375Z,10.50
2018-05-17T22:29:05.916Z,10.60
2018-05-17T22:30:09.120Z,10.50
2018-05-17T22:31:11.632Z,10.60
2018-05-17T22:32:14.129Z,10.50
2018-05-17T22:33:16.623Z,10.50
2018-05-17T22:34:19.899Z,10.50
2018-05-17T22:35:23.188Z,10.50
2018-05-17T22:36:26.449Z,10.50
2018-05-17T22:37:28.948Z,10.50
2018-05-17T22:38:32.211Z,10.50
2018-05-17T22:39:34.707Z,10.50
2018-05-17T22:40:38.080Z,10.50
2018-05-17T22:41:40.595Z,10.50
2018-05-17T22:42:43.102Z,10.50
2018-05-17T22:43:45.600Z,10.50
2018-05-17T22:44:48.861Z,10.50
2018-05-17T22:45:51.392Z,10.50
2018-05-17T22:46:54.274Z,10.50
2018-05-17T22:47:56.767Z,10.50
2018-05-17T22:48:59.272Z,10.50
2018-05-17T22:50:01.783Z,10.50
2018-05-17T22:51:04.307Z,10.60
2018-05-17T22:52:06.822Z,10.50
2018-05-17T22:53:09.331Z,10.40
2018-05-17T22:54:11.999Z,10.40
2018-05-17T22:55:14.522Z,10.40
2018-05-17T22:56:29.820Z,10.40
2018-05-17T22:57:44.228Z,10.40
2018-05-17T22:58:47.483Z,10.40
2018-05-17T22:59:50.161Z,10.40
2018-05-17T23:00:52.663Z,10.40
2018-05-17T23:01:55.173Z,10.30
2018-05-17T23:02:57.665Z,10.30
2018-05-17T23:04:00.174Z,10.40
2018-05-17T23:05:02.676Z,10.40
2018-05-17T23:06:05.175Z,10.30
2018-05-17T23:07:07.710Z,10.40
2018-05-17T23:08:10.238Z,10.40
2018-05-17T23:09:12.738Z,10.40
2018-05-17T23:10:16.035Z,10.30
2018-05-17T23:11:18.558Z,10.30
2018-05-17T23:12:21.128Z,10.40
2018-05-17T23:13:23.629Z,10.40
2018-05-17T23:14:26.909Z,10.40
2018-05-17T23:15:30.212Z,10.30
2018-05-17T23:16:33.476Z,10.30
2018-05-17T23:17:35.981Z,10.30
2018-05-17T23:18:38.487Z,10.30
2018-05-17T23:19:40.979Z,10.30
2018-05-17T23:20:43.505Z,10.30
2018-05-17T23:21:46.020Z,10.20
2018-05-17T23:22:48.523Z,10.20
2018-05-17T23:23:52.011Z,10.20
2018-05-17T23:24:55.291Z,10.20
2018-05-17T23:25:57.795Z,10.20
2018-05-17T23:27:00.314Z,10.20
2018-05-17T23:28:02.847Z,10.10
2018-05-17T23:29:05.357Z,10.10
2018-05-17T23:30:07.963Z,10.10
2018-05-17T23:31:11.251Z,10.00
2018-05-17T23:32:14.521Z,10.00
2018-05-17T23:33:17.815Z,10.00
2018-05-17T23:34:20.334Z,10.00
2018-05-17T23:35:22.836Z,10.00
2018-05-17T23:36:25.359Z,10.00
2018-05-17T23:37:27.909Z,10.00
2018-05-17T23:38:31.180Z,10.00
2018-05-17T23:39:33.674Z,10.00
2018-05-17T23:42:15.478Z,10.00
2018-05-17T23:43:17.988Z,10.00
2018-05-17T23:44:20.498Z,10.00
2018-05-17T23:45:23.022Z,9.90
2018-05-17T23:46:25.575Z,9.90
2018-05-17T23:47:28.069Z,9.90
2018-05-17T23:48:30.580Z,9.90
2018-05-17T23:49:33.067Z,9.90
2018-05-17T23:50:36.334Z,9.90
2018-05-17T23:51:38.827Z,9.90
2018-05-17T23:52:42.088Z,9.90
2018-05-17T23:53:44.632Z,9.90
2018-05-17T23:54:47.120Z,9.90
2018-05-17T23:55:49.622Z,9.90
2018-05-17T23:56:52.881Z,10.00
2018-05-17T23:57:55.375Z,10.00
2018-05-17T23:58:58.636Z,9.90
